sensor_id;sensor_type;location;lat;lon;timestamp;P1;durP1;ratioP1;P2;durP2;ratioP2
19030;SDS011;9648;51.130;13.978;2022-12-18T00:00:44;48.95;;;25.15;;
19030;SDS011;9648;51.130;13.978;2022-12-18T00:03:13;44.43;;;23.73;;
19030;SDS011;9648;51.130;13.978;2022-12-18T00:05:45;42.28;;;22.48;;
19030;SDS011;9648;51.130;13.978;2022-12-18T00:08:13;40.67;;;22.95;;
19030;SDS011;9648;51.130;13.978;2022-12-18T00:10:40;44.90;;;23.40;;
19030;SDS011;9648;51.130;13.978;2022-12-18T00:13:07;49.13;;;24.80;;
19030;SDS011;9648;51.130;13.978;2022-12-18T00:15:34;39.28;;;22.52;;
19030;SDS011;9648;51.130;13.978;2022-12-18T00:18:01;41.22;;;22.38;;
19030;SDS011;9648;51.130;13.978;2022-12-18T00:20:36;49.20;;;25.73;;
19030;SDS011;9648;51.130;13.978;2022-12-18T00:23:04;50.75;;;26.30;;
19030;SDS011;9648;51.130;13.978;2022-12-18T00:25:32;40.65;;;22.55;;
19030;SDS011;9648;51.130;13.978;2022-12-18T00:28:00;44.42;;;23.40;;
19030;SDS011;9648;51.130;13.978;2022-12-18T00:30:27;53.08;;;25.92;;
19030;SDS011;9648;51.130;13.978;2022-12-18T00:32:54;53.15;;;26.55;;
19030;SDS011;9648;51.130;13.978;2022-12-18T00:35:20;49.95;;;25.98;;
19030;SDS011;9648;51.130;13.978;2022-12-18T00:37:49;44.08;;;23.75;;
19030;SDS011;9648;51.130;13.978;2022-12-18T00:40:16;41.45;;;21.65;;
19030;SDS011;9648;51.130;13.978;2022-12-18T00:42:43;45.15;;;23.65;;
19030;SDS011;9648;51.130;13.978;2022-12-18T00:45:20;46.10;;;24.13;;
19030;SDS011;9648;51.130;13.978;2022-12-18T00:47:47;44.67;;;23.33;;
19030;SDS011;9648;51.130;13.978;2022-12-18T00:50:14;40.15;;;21.73;;
19030;SDS011;9648;51.130;13.978;2022-12-18T00:52:41;42.17;;;22.17;;
19030;SDS011;9648;51.130;13.978;2022-12-18T00:55:10;40.65;;;22.17;;
19030;SDS011;9648;51.130;13.978;2022-12-18T00:57:37;40.50;;;21.70;;
19030;SDS011;9648;51.130;13.978;2022-12-18T01:00:05;37.45;;;21.10;;
19030;SDS011;9648;51.130;13.978;2022-12-18T01:02:33;37.28;;;20.27;;
19030;SDS011;9648;51.130;13.978;2022-12-18T01:05:00;41.17;;;21.95;;
19030;SDS011;9648;51.130;13.978;2022-12-18T01:07:27;40.70;;;21.23;;
19030;SDS011;9648;51.130;13.978;2022-12-18T01:09:54;39.95;;;22.23;;
19030;SDS011;9648;51.130;13.978;2022-12-18T01:12:22;43.00;;;22.98;;
19030;SDS011;9648;51.130;13.978;2022-12-18T01:14:49;46.20;;;24.52;;
19030;SDS011;9648;51.130;13.978;2022-12-18T01:17:16;42.28;;;22.60;;
19030;SDS011;9648;51.130;13.978;2022-12-18T01:19:43;38.85;;;20.50;;
19030;SDS011;9648;51.130;13.978;2022-12-18T01:22:10;37.58;;;20.38;;
19030;SDS011;9648;51.130;13.978;2022-12-18T01:24:36;40.72;;;20.67;;
19030;SDS011;9648;51.130;13.978;2022-12-18T01:27:06;37.78;;;21.23;;
19030;SDS011;9648;51.130;13.978;2022-12-18T01:29:34;30.92;;;18.13;;
19030;SDS011;9648;51.130;13.978;2022-12-18T01:32:01;36.50;;;19.98;;
19030;SDS011;9648;51.130;13.978;2022-12-18T01:34:28;38.63;;;20.63;;
19030;SDS011;9648;51.130;13.978;2022-12-18T01:36:55;36.28;;;20.85;;
19030;SDS011;9648;51.130;13.978;2022-12-18T01:39:21;39.33;;;21.08;;
19030;SDS011;9648;51.130;13.978;2022-12-18T01:41:49;36.95;;;20.38;;
19030;SDS011;9648;51.130;13.978;2022-12-18T01:47:23;42.63;;;23.30;;
19030;SDS011;9648;51.130;13.978;2022-12-18T01:49:53;39.78;;;22.13;;
19030;SDS011;9648;51.130;13.978;2022-12-18T01:52:22;46.83;;;23.50;;
19030;SDS011;9648;51.130;13.978;2022-12-18T01:54:50;45.35;;;24.38;;
19030;SDS011;9648;51.130;13.978;2022-12-18T01:57:18;44.55;;;22.55;;
19030;SDS011;9648;51.130;13.978;2022-12-18T01:59:46;42.22;;;22.38;;
19030;SDS011;9648;51.130;13.978;2022-12-18T02:02:18;44.03;;;22.85;;
19030;SDS011;9648;51.130;13.978;2022-12-18T02:04:46;44.63;;;23.17;;
19030;SDS011;9648;51.130;13.978;2022-12-18T02:07:16;41.72;;;21.60;;
19030;SDS011;9648;51.130;13.978;2022-12-18T02:09:49;47.05;;;23.23;;
19030;SDS011;9648;51.130;13.978;2022-12-18T02:12:20;43.10;;;22.85;;
19030;SDS011;9648;51.130;13.978;2022-12-18T02:14:52;38.35;;;21.00;;
19030;SDS011;9648;51.130;13.978;2022-12-18T02:17:28;41.42;;;21.40;;
19030;SDS011;9648;51.130;13.978;2022-12-18T02:20:05;34.17;;;18.63;;
19030;SDS011;9648;51.130;13.978;2022-12-18T02:22:44;33.00;;;17.92;;
19030;SDS011;9648;51.130;13.978;2022-12-18T02:25:26;31.55;;;17.83;;
19030;SDS011;9648;51.130;13.978;2022-12-18T02:28:06;37.28;;;19.65;;
19030;SDS011;9648;51.130;13.978;2022-12-18T02:30:37;35.95;;;19.30;;
19030;SDS011;9648;51.130;13.978;2022-12-18T02:33:06;31.35;;;16.85;;
19030;SDS011;9648;51.130;13.978;2022-12-18T02:35:35;44.05;;;20.08;;
19030;SDS011;9648;51.130;13.978;2022-12-18T02:38:04;33.38;;;18.40;;
19030;SDS011;9648;51.130;13.978;2022-12-18T02:40:34;33.03;;;17.40;;
19030;SDS011;9648;51.130;13.978;2022-12-18T02:43:07;32.90;;;18.17;;
19030;SDS011;9648;51.130;13.978;2022-12-18T02:45:35;36.22;;;18.67;;
19030;SDS011;9648;51.130;13.978;2022-12-18T02:48:03;35.33;;;18.65;;
19030;SDS011;9648;51.130;13.978;2022-12-18T02:50:30;34.53;;;18.42;;
19030;SDS011;9648;51.130;13.978;2022-12-18T02:53:04;35.97;;;19.17;;
19030;SDS011;9648;51.130;13.978;2022-12-18T02:55:40;35.83;;;18.70;;
19030;SDS011;9648;51.130;13.978;2022-12-18T02:58:17;34.15;;;18.55;;
19030;SDS011;9648;51.130;13.978;2022-12-18T03:00:52;38.10;;;19.33;;
19030;SDS011;9648;51.130;13.978;2022-12-18T03:03:25;42.35;;;22.15;;
19030;SDS011;9648;51.130;13.978;2022-12-18T03:05:57;40.13;;;20.50;;
19030;SDS011;9648;51.130;13.978;2022-12-18T03:08:28;41.33;;;21.50;;
19030;SDS011;9648;51.130;13.978;2022-12-18T03:10:58;38.22;;;20.02;;
19030;SDS011;9648;51.130;13.978;2022-12-18T03:13:30;38.08;;;19.02;;
19030;SDS011;9648;51.130;13.978;2022-12-18T03:15:58;40.05;;;19.75;;
19030;SDS011;9648;51.130;13.978;2022-12-18T03:18:27;41.07;;;20.30;;
19030;SDS011;9648;51.130;13.978;2022-12-18T03:20:59;40.10;;;20.55;;
19030;SDS011;9648;51.130;13.978;2022-12-18T03:23:33;40.00;;;20.17;;
19030;SDS011;9648;51.130;13.978;2022-12-18T03:26:04;37.37;;;18.87;;
19030;SDS011;9648;51.130;13.978;2022-12-18T03:28:52;37.17;;;18.65;;
19030;SDS011;9648;51.130;13.978;2022-12-18T03:31:22;38.08;;;20.05;;
19030;SDS011;9648;51.130;13.978;2022-12-18T03:33:52;40.90;;;20.75;;
19030;SDS011;9648;51.130;13.978;2022-12-18T03:36:21;41.20;;;19.63;;
19030;SDS011;9648;51.130;13.978;2022-12-18T03:38:48;36.47;;;19.45;;
19030;SDS011;9648;51.130;13.978;2022-12-18T03:41:17;38.38;;;19.85;;
19030;SDS011;9648;51.130;13.978;2022-12-18T03:43:52;39.50;;;19.75;;
19030;SDS011;9648;51.130;13.978;2022-12-18T03:46:26;39.65;;;19.83;;
19030;SDS011;9648;51.130;13.978;2022-12-18T03:48:58;37.65;;;19.58;;
19030;SDS011;9648;51.130;13.978;2022-12-18T03:51:31;37.22;;;19.17;;
19030;SDS011;9648;51.130;13.978;2022-12-18T03:54:06;37.50;;;19.02;;
19030;SDS011;9648;51.130;13.978;2022-12-18T03:56:37;41.53;;;21.00;;
19030;SDS011;9648;51.130;13.978;2022-12-18T03:59:09;37.47;;;19.58;;
19030;SDS011;9648;51.130;13.978;2022-12-18T04:01:40;34.35;;;18.67;;
19030;SDS011;9648;51.130;13.978;2022-12-18T04:04:11;36.57;;;19.43;;
19030;SDS011;9648;51.130;13.978;2022-12-18T04:06:39;38.08;;;19.00;;
19030;SDS011;9648;51.130;13.978;2022-12-18T04:09:07;34.33;;;17.67;;
19030;SDS011;9648;51.130;13.978;2022-12-18T04:11:34;31.58;;;16.77;;
19030;SDS011;9648;51.130;13.978;2022-12-18T04:14:01;32.53;;;17.80;;
19030;SDS011;9648;51.130;13.978;2022-12-18T04:16:30;37.85;;;19.40;;
19030;SDS011;9648;51.130;13.978;2022-12-18T04:18:57;29.35;;;16.42;;
19030;SDS011;9648;51.130;13.978;2022-12-18T04:21:24;28.50;;;15.23;;
19030;SDS011;9648;51.130;13.978;2022-12-18T04:23:50;28.02;;;15.82;;
19030;SDS011;9648;51.130;13.978;2022-12-18T04:26:18;28.52;;;15.30;;
19030;SDS011;9648;51.130;13.978;2022-12-18T04:28:57;27.50;;;16.05;;
19030;SDS011;9648;51.130;13.978;2022-12-18T04:31:24;25.40;;;14.77;;
19030;SDS011;9648;51.130;13.978;2022-12-18T04:33:52;24.65;;;14.07;;
19030;SDS011;9648;51.130;13.978;2022-12-18T04:36:19;26.88;;;14.95;;
19030;SDS011;9648;51.130;13.978;2022-12-18T04:38:46;28.40;;;15.13;;
19030;SDS011;9648;51.130;13.978;2022-12-18T04:41:13;26.10;;;14.60;;
19030;SDS011;9648;51.130;13.978;2022-12-18T04:43:39;27.50;;;14.93;;
19030;SDS011;9648;51.130;13.978;2022-12-18T04:46:07;26.35;;;14.05;;
19030;SDS011;9648;51.130;13.978;2022-12-18T04:48:34;26.42;;;13.95;;
19030;SDS011;9648;51.130;13.978;2022-12-18T04:51:04;26.23;;;14.00;;
19030;SDS011;9648;51.130;13.978;2022-12-18T04:53:32;23.83;;;14.02;;
19030;SDS011;9648;51.130;13.978;2022-12-18T04:56:03;25.70;;;13.95;;
19030;SDS011;9648;51.130;13.978;2022-12-18T04:58:31;26.90;;;15.20;;
19030;SDS011;9648;51.130;13.978;2022-12-18T05:00:58;28.27;;;15.80;;
19030;SDS011;9648;51.130;13.978;2022-12-18T05:03:25;29.58;;;15.35;;
19030;SDS011;9648;51.130;13.978;2022-12-18T05:05:55;27.42;;;14.77;;
19030;SDS011;9648;51.130;13.978;2022-12-18T05:08:23;29.25;;;15.85;;
19030;SDS011;9648;51.130;13.978;2022-12-18T05:10:57;32.47;;;16.17;;
19030;SDS011;9648;51.130;13.978;2022-12-18T05:13:25;27.10;;;15.15;;
19030;SDS011;9648;51.130;13.978;2022-12-18T05:15:52;27.33;;;14.82;;
19030;SDS011;9648;51.130;13.978;2022-12-18T05:18:19;30.63;;;16.05;;
19030;SDS011;9648;51.130;13.978;2022-12-18T05:20:49;30.52;;;16.40;;
19030;SDS011;9648;51.130;13.978;2022-12-18T05:23:16;30.80;;;15.88;;
19030;SDS011;9648;51.130;13.978;2022-12-18T05:25:47;32.50;;;17.45;;
19030;SDS011;9648;51.130;13.978;2022-12-18T05:28:16;32.33;;;17.13;;
19030;SDS011;9648;51.130;13.978;2022-12-18T05:30:47;36.88;;;18.77;;
19030;SDS011;9648;51.130;13.978;2022-12-18T05:33:15;33.25;;;17.90;;
19030;SDS011;9648;51.130;13.978;2022-12-18T05:35:42;33.25;;;17.17;;
19030;SDS011;9648;51.130;13.978;2022-12-18T05:38:09;37.80;;;18.42;;
19030;SDS011;9648;51.130;13.978;2022-12-18T05:40:36;38.17;;;18.52;;
19030;SDS011;9648;51.130;13.978;2022-12-18T05:43:04;41.38;;;19.77;;
19030;SDS011;9648;51.130;13.978;2022-12-18T05:45:31;43.43;;;21.37;;
19030;SDS011;9648;51.130;13.978;2022-12-18T05:47:58;36.85;;;19.40;;
19030;SDS011;9648;51.130;13.978;2022-12-18T05:50:25;39.55;;;19.92;;
19030;SDS011;9648;51.130;13.978;2022-12-18T05:52:51;39.90;;;19.85;;
19030;SDS011;9648;51.130;13.978;2022-12-18T05:55:18;38.38;;;19.77;;
19030;SDS011;9648;51.130;13.978;2022-12-18T05:57:48;37.80;;;19.15;;
19030;SDS011;9648;51.130;13.978;2022-12-18T06:00:16;39.45;;;19.60;;
19030;SDS011;9648;51.130;13.978;2022-12-18T06:02:46;42.65;;;20.65;;
19030;SDS011;9648;51.130;13.978;2022-12-18T06:05:13;41.28;;;21.10;;
19030;SDS011;9648;51.130;13.978;2022-12-18T06:07:40;42.47;;;20.10;;
19030;SDS011;9648;51.130;13.978;2022-12-18T06:10:07;40.88;;;20.60;;
19030;SDS011;9648;51.130;13.978;2022-12-18T06:12:34;41.30;;;20.45;;
19030;SDS011;9648;51.130;13.978;2022-12-18T06:15:01;40.00;;;19.70;;
19030;SDS011;9648;51.130;13.978;2022-12-18T06:17:30;40.80;;;19.65;;
19030;SDS011;9648;51.130;13.978;2022-12-18T06:19:57;39.22;;;19.50;;
19030;SDS011;9648;51.130;13.978;2022-12-18T06:22:24;36.25;;;17.95;;
19030;SDS011;9648;51.130;13.978;2022-12-18T06:24:51;40.33;;;19.25;;
19030;SDS011;9648;51.130;13.978;2022-12-18T06:27:18;36.58;;;18.50;;
19030;SDS011;9648;51.130;13.978;2022-12-18T06:29:45;40.25;;;19.65;;
19030;SDS011;9648;51.130;13.978;2022-12-18T06:32:12;35.95;;;18.90;;
19030;SDS011;9648;51.130;13.978;2022-12-18T06:34:40;38.38;;;19.05;;
19030;SDS011;9648;51.130;13.978;2022-12-18T06:37:07;39.33;;;18.98;;
19030;SDS011;9648;51.130;13.978;2022-12-18T06:39:34;38.60;;;18.38;;
19030;SDS011;9648;51.130;13.978;2022-12-18T06:42:01;38.08;;;18.42;;
19030;SDS011;9648;51.130;13.978;2022-12-18T06:44:28;33.83;;;17.25;;
19030;SDS011;9648;51.130;13.978;2022-12-18T06:46:55;33.00;;;16.55;;
19030;SDS011;9648;51.130;13.978;2022-12-18T06:49:22;35.88;;;17.73;;
19030;SDS011;9648;51.130;13.978;2022-12-18T06:51:51;34.70;;;16.58;;
19030;SDS011;9648;51.130;13.978;2022-12-18T06:54:20;35.83;;;17.20;;
19030;SDS011;9648;51.130;13.978;2022-12-18T06:56:47;35.65;;;17.25;;
19030;SDS011;9648;51.130;13.978;2022-12-18T06:59:14;36.13;;;16.58;;
19030;SDS011;9648;51.130;13.978;2022-12-18T07:01:41;31.05;;;15.75;;
19030;SDS011;9648;51.130;13.978;2022-12-18T07:04:08;30.92;;;15.43;;
19030;SDS011;9648;51.130;13.978;2022-12-18T07:06:38;29.65;;;15.27;;
19030;SDS011;9648;51.130;13.978;2022-12-18T07:09:06;29.88;;;15.60;;
19030;SDS011;9648;51.130;13.978;2022-12-18T07:11:33;34.13;;;16.38;;
19030;SDS011;9648;51.130;13.978;2022-12-18T07:14:00;32.63;;;15.65;;
19030;SDS011;9648;51.130;13.978;2022-12-18T07:16:27;29.98;;;14.73;;
19030;SDS011;9648;51.130;13.978;2022-12-18T07:18:54;31.57;;;15.90;;
19030;SDS011;9648;51.130;13.978;2022-12-18T07:21:22;34.45;;;17.08;;
19030;SDS011;9648;51.130;13.978;2022-12-18T07:23:50;30.30;;;14.87;;
19030;SDS011;9648;51.130;13.978;2022-12-18T07:26:19;32.90;;;15.45;;
19030;SDS011;9648;51.130;13.978;2022-12-18T07:28:48;33.65;;;15.30;;
19030;SDS011;9648;51.130;13.978;2022-12-18T07:31:16;33.22;;;16.02;;
19030;SDS011;9648;51.130;13.978;2022-12-18T07:33:44;31.57;;;15.03;;
19030;SDS011;9648;51.130;13.978;2022-12-18T07:36:12;30.08;;;15.32;;
19030;SDS011;9648;51.130;13.978;2022-12-18T07:38:39;29.38;;;15.10;;
19030;SDS011;9648;51.130;13.978;2022-12-18T07:41:07;30.00;;;14.63;;
19030;SDS011;9648;51.130;13.978;2022-12-18T07:43:37;33.60;;;15.57;;
19030;SDS011;9648;51.130;13.978;2022-12-18T07:46:05;30.40;;;15.23;;
19030;SDS011;9648;51.130;13.978;2022-12-18T07:48:32;32.95;;;15.55;;
19030;SDS011;9648;51.130;13.978;2022-12-18T07:51:00;31.13;;;15.55;;
19030;SDS011;9648;51.130;13.978;2022-12-18T07:53:27;30.67;;;14.90;;
19030;SDS011;9648;51.130;13.978;2022-12-18T07:55:55;30.83;;;14.63;;
19030;SDS011;9648;51.130;13.978;2022-12-18T07:58:22;30.80;;;15.52;;
19030;SDS011;9648;51.130;13.978;2022-12-18T08:00:51;30.35;;;14.68;;
19030;SDS011;9648;51.130;13.978;2022-12-18T08:03:18;29.88;;;15.27;;
19030;SDS011;9648;51.130;13.978;2022-12-18T08:05:45;26.02;;;13.77;;
19030;SDS011;9648;51.130;13.978;2022-12-18T08:08:12;28.00;;;14.80;;
19030;SDS011;9648;51.130;13.978;2022-12-18T08:10:39;30.10;;;15.05;;
19030;SDS011;9648;51.130;13.978;2022-12-18T08:13:05;31.63;;;14.95;;
19030;SDS011;9648;51.130;13.978;2022-12-18T08:15:32;28.98;;;15.10;;
19030;SDS011;9648;51.130;13.978;2022-12-18T08:18:00;29.47;;;15.23;;
19030;SDS011;9648;51.130;13.978;2022-12-18T08:20:27;29.00;;;14.48;;
19030;SDS011;9648;51.130;13.978;2022-12-18T08:22:54;29.80;;;15.00;;
19030;SDS011;9648;51.130;13.978;2022-12-18T08:25:23;27.42;;;14.43;;
19030;SDS011;9648;51.130;13.978;2022-12-18T08:27:49;30.05;;;15.00;;
19030;SDS011;9648;51.130;13.978;2022-12-18T08:30:16;30.52;;;15.02;;
19030;SDS011;9648;51.130;13.978;2022-12-18T08:32:43;30.13;;;15.43;;
19030;SDS011;9648;51.130;13.978;2022-12-18T08:35:11;28.43;;;14.77;;
19030;SDS011;9648;51.130;13.978;2022-12-18T08:37:38;29.00;;;14.18;;
19030;SDS011;9648;51.130;13.978;2022-12-18T08:40:06;33.57;;;15.90;;
19030;SDS011;9648;51.130;13.978;2022-12-18T08:42:36;31.15;;;16.45;;
19030;SDS011;9648;51.130;13.978;2022-12-18T08:45:20;31.70;;;16.60;;
19030;SDS011;9648;51.130;13.978;2022-12-18T08:47:47;30.95;;;15.52;;
19030;SDS011;9648;51.130;13.978;2022-12-18T08:50:16;31.42;;;15.43;;
19030;SDS011;9648;51.130;13.978;2022-12-18T08:52:43;32.25;;;16.05;;
19030;SDS011;9648;51.130;13.978;2022-12-18T08:55:10;29.70;;;15.45;;
19030;SDS011;9648;51.130;13.978;2022-12-18T08:57:37;29.90;;;15.55;;
19030;SDS011;9648;51.130;13.978;2022-12-18T09:00:04;31.02;;;15.80;;
19030;SDS011;9648;51.130;13.978;2022-12-18T09:02:31;31.07;;;15.70;;
19030;SDS011;9648;51.130;13.978;2022-12-18T09:04:58;32.70;;;16.92;;
19030;SDS011;9648;51.130;13.978;2022-12-18T09:07:26;34.88;;;17.13;;
19030;SDS011;9648;51.130;13.978;2022-12-18T09:09:53;31.08;;;16.15;;
19030;SDS011;9648;51.130;13.978;2022-12-18T09:12:20;28.00;;;15.07;;
19030;SDS011;9648;51.130;13.978;2022-12-18T09:14:47;31.88;;;16.60;;
19030;SDS011;9648;51.130;13.978;2022-12-18T09:17:14;34.70;;;16.50;;
19030;SDS011;9648;51.130;13.978;2022-12-18T09:19:40;33.65;;;17.35;;
19030;SDS011;9648;51.130;13.978;2022-12-18T09:22:08;33.47;;;16.53;;
19030;SDS011;9648;51.130;13.978;2022-12-18T09:24:37;37.83;;;17.63;;
19030;SDS011;9648;51.130;13.978;2022-12-18T09:27:03;32.78;;;16.98;;
19030;SDS011;9648;51.130;13.978;2022-12-18T09:29:30;35.50;;;16.98;;
19030;SDS011;9648;51.130;13.978;2022-12-18T09:31:58;35.17;;;17.38;;
19030;SDS011;9648;51.130;13.978;2022-12-18T09:34:24;35.25;;;16.80;;
19030;SDS011;9648;51.130;13.978;2022-12-18T09:36:51;34.45;;;17.00;;
19030;SDS011;9648;51.130;13.978;2022-12-18T09:39:18;32.72;;;17.10;;
19030;SDS011;9648;51.130;13.978;2022-12-18T09:41:47;37.60;;;17.83;;
19030;SDS011;9648;51.130;13.978;2022-12-18T09:44:21;35.92;;;17.40;;
19030;SDS011;9648;51.130;13.978;2022-12-18T09:46:55;31.80;;;16.33;;
19030;SDS011;9648;51.130;13.978;2022-12-18T09:49:34;36.47;;;17.63;;
19030;SDS011;9648;51.130;13.978;2022-12-18T09:52:08;36.20;;;17.13;;
19030;SDS011;9648;51.130;13.978;2022-12-18T09:54:39;33.58;;;17.02;;
19030;SDS011;9648;51.130;13.978;2022-12-18T09:57:12;34.70;;;17.17;;
19030;SDS011;9648;51.130;13.978;2022-12-18T09:59:41;33.80;;;17.27;;
19030;SDS011;9648;51.130;13.978;2022-12-18T10:02:16;32.27;;;16.10;;
19030;SDS011;9648;51.130;13.978;2022-12-18T10:04:48;34.17;;;17.38;;
19030;SDS011;9648;51.130;13.978;2022-12-18T10:07:24;33.70;;;16.80;;
19030;SDS011;9648;51.130;13.978;2022-12-18T10:10:01;31.00;;;16.38;;
19030;SDS011;9648;51.130;13.978;2022-12-18T10:12:34;30.63;;;16.00;;
19030;SDS011;9648;51.130;13.978;2022-12-18T10:15:10;30.05;;;16.02;;
19030;SDS011;9648;51.130;13.978;2022-12-18T10:17:42;29.13;;;15.18;;
19030;SDS011;9648;51.130;13.978;2022-12-18T10:20:18;33.72;;;16.77;;
19030;SDS011;9648;51.130;13.978;2022-12-18T10:22:53;33.05;;;16.38;;
19030;SDS011;9648;51.130;13.978;2022-12-18T10:25:30;32.08;;;16.10;;
19030;SDS011;9648;51.130;13.978;2022-12-18T10:28:09;35.53;;;16.95;;
19030;SDS011;9648;51.130;13.978;2022-12-18T10:30:38;32.10;;;16.38;;
19030;SDS011;9648;51.130;13.978;2022-12-18T10:33:08;29.98;;;16.15;;
19030;SDS011;9648;51.130;13.978;2022-12-18T10:35:38;31.88;;;16.83;;
19030;SDS011;9648;51.130;13.978;2022-12-18T10:38:20;30.53;;;16.23;;
19030;SDS011;9648;51.130;13.978;2022-12-18T10:40:50;32.10;;;16.40;;
19030;SDS011;9648;51.130;13.978;2022-12-18T10:43:24;35.42;;;16.75;;
19030;SDS011;9648;51.130;13.978;2022-12-18T10:46:03;33.60;;;16.98;;
19030;SDS011;9648;51.130;13.978;2022-12-18T10:48:39;34.72;;;17.70;;
19030;SDS011;9648;51.130;13.978;2022-12-18T10:51:19;33.28;;;16.75;;
19030;SDS011;9648;51.130;13.978;2022-12-18T10:53:53;33.67;;;16.55;;
19030;SDS011;9648;51.130;13.978;2022-12-18T10:56:23;32.03;;;17.00;;
19030;SDS011;9648;51.130;13.978;2022-12-18T10:58:59;33.55;;;17.25;;
19030;SDS011;9648;51.130;13.978;2022-12-18T11:01:27;30.92;;;16.35;;
19030;SDS011;9648;51.130;13.978;2022-12-18T11:04:00;35.17;;;17.25;;
19030;SDS011;9648;51.130;13.978;2022-12-18T11:06:33;31.10;;;16.52;;
19030;SDS011;9648;51.130;13.978;2022-12-18T11:09:00;35.13;;;16.77;;
19030;SDS011;9648;51.130;13.978;2022-12-18T11:11:29;33.90;;;16.98;;
19030;SDS011;9648;51.130;13.978;2022-12-18T11:14:00;32.15;;;16.80;;
19030;SDS011;9648;51.130;13.978;2022-12-18T11:16:30;33.20;;;16.98;;
19030;SDS011;9648;51.130;13.978;2022-12-18T11:19:09;32.95;;;16.70;;
19030;SDS011;9648;51.130;13.978;2022-12-18T11:21:49;32.80;;;16.13;;
19030;SDS011;9648;51.130;13.978;2022-12-18T11:24:21;33.53;;;16.00;;
19030;SDS011;9648;51.130;13.978;2022-12-18T11:26:54;30.45;;;15.23;;
19030;SDS011;9648;51.130;13.978;2022-12-18T11:29:24;31.33;;;15.90;;
19030;SDS011;9648;51.130;13.978;2022-12-18T11:34:48;28.70;;;14.53;;
19030;SDS011;9648;51.130;13.978;2022-12-18T11:37:19;30.10;;;15.75;;
19030;SDS011;9648;51.130;13.978;2022-12-18T11:39:47;30.83;;;15.63;;
19030;SDS011;9648;51.130;13.978;2022-12-18T11:42:20;29.52;;;14.82;;
19030;SDS011;9648;51.130;13.978;2022-12-18T11:44:52;28.07;;;14.77;;
19030;SDS011;9648;51.130;13.978;2022-12-18T11:47:25;30.30;;;15.50;;
19030;SDS011;9648;51.130;13.978;2022-12-18T11:49:59;29.90;;;14.90;;
19030;SDS011;9648;51.130;13.978;2022-12-18T11:52:31;29.60;;;15.35;;
19030;SDS011;9648;51.130;13.978;2022-12-18T11:55:07;27.17;;;14.10;;
19030;SDS011;9648;51.130;13.978;2022-12-18T11:57:39;26.92;;;14.23;;
19030;SDS011;9648;51.130;13.978;2022-12-18T12:00:13;27.38;;;14.52;;
19030;SDS011;9648;51.130;13.978;2022-12-18T12:02:47;28.05;;;14.50;;
19030;SDS011;9648;51.130;13.978;2022-12-18T12:05:37;25.13;;;13.70;;
19030;SDS011;9648;51.130;13.978;2022-12-18T12:08:14;29.77;;;14.18;;
19030;SDS011;9648;51.130;13.978;2022-12-18T12:10:52;28.10;;;14.32;;
19030;SDS011;9648;51.130;13.978;2022-12-18T12:13:25;26.83;;;14.18;;
19030;SDS011;9648;51.130;13.978;2022-12-18T12:16:07;27.07;;;13.50;;
19030;SDS011;9648;51.130;13.978;2022-12-18T12:18:45;24.70;;;13.70;;
19030;SDS011;9648;51.130;13.978;2022-12-18T12:21:26;27.38;;;14.30;;
19030;SDS011;9648;51.130;13.978;2022-12-18T12:24:02;25.50;;;13.63;;
19030;SDS011;9648;51.130;13.978;2022-12-18T12:26:52;25.77;;;13.32;;
19030;SDS011;9648;51.130;13.978;2022-12-18T12:32:41;26.98;;;13.88;;
19030;SDS011;9648;51.130;13.978;2022-12-18T12:35:22;27.75;;;14.10;;
19030;SDS011;9648;51.130;13.978;2022-12-18T12:37:58;26.65;;;13.95;;
19030;SDS011;9648;51.130;13.978;2022-12-18T12:40:33;27.40;;;14.38;;
19030;SDS011;9648;51.130;13.978;2022-12-18T12:43:02;28.02;;;14.82;;
19030;SDS011;9648;51.130;13.978;2022-12-18T12:45:41;26.58;;;14.18;;
19030;SDS011;9648;51.130;13.978;2022-12-18T12:48:16;27.23;;;14.47;;
19030;SDS011;9648;51.130;13.978;2022-12-18T12:50:50;28.10;;;14.30;;
19030;SDS011;9648;51.130;13.978;2022-12-18T12:53:21;29.60;;;14.27;;
19030;SDS011;9648;51.130;13.978;2022-12-18T12:55:52;29.13;;;14.80;;
19030;SDS011;9648;51.130;13.978;2022-12-18T12:58:23;29.13;;;14.63;;
19030;SDS011;9648;51.130;13.978;2022-12-18T13:01:01;29.02;;;14.75;;
19030;SDS011;9648;51.130;13.978;2022-12-18T13:03:42;29.75;;;14.35;;
19030;SDS011;9648;51.130;13.978;2022-12-18T13:06:19;26.97;;;13.57;;
19030;SDS011;9648;51.130;13.978;2022-12-18T13:08:57;26.30;;;14.27;;
19030;SDS011;9648;51.130;13.978;2022-12-18T13:11:28;28.13;;;13.85;;
19030;SDS011;9648;51.130;13.978;2022-12-18T13:14:20;27.60;;;13.95;;
19030;SDS011;9648;51.130;13.978;2022-12-18T13:16:48;26.45;;;13.13;;
19030;SDS011;9648;51.130;13.978;2022-12-18T13:19:21;27.15;;;13.43;;
19030;SDS011;9648;51.130;13.978;2022-12-18T13:21:54;25.60;;;13.18;;
19030;SDS011;9648;51.130;13.978;2022-12-18T13:24:23;27.42;;;13.48;;
19030;SDS011;9648;51.130;13.978;2022-12-18T13:26:55;24.90;;;12.88;;
19030;SDS011;9648;51.130;13.978;2022-12-18T13:29:41;26.95;;;13.57;;
19030;SDS011;9648;51.130;13.978;2022-12-18T13:32:20;27.80;;;14.02;;
19030;SDS011;9648;51.130;13.978;2022-12-18T13:34:48;25.77;;;12.98;;
19030;SDS011;9648;51.130;13.978;2022-12-18T13:37:41;24.63;;;13.03;;
19030;SDS011;9648;51.130;13.978;2022-12-18T13:43:28;24.95;;;12.63;;
19030;SDS011;9648;51.130;13.978;2022-12-18T13:46:00;23.83;;;12.15;;
19030;SDS011;9648;51.130;13.978;2022-12-18T13:48:30;20.80;;;11.18;;
19030;SDS011;9648;51.130;13.978;2022-12-18T13:51:01;24.83;;;12.73;;
19030;SDS011;9648;51.130;13.978;2022-12-18T13:53:32;25.30;;;12.93;;
19030;SDS011;9648;51.130;13.978;2022-12-18T13:56:02;24.92;;;12.48;;
19030;SDS011;9648;51.130;13.978;2022-12-18T13:58:30;24.50;;;11.93;;
19030;SDS011;9648;51.130;13.978;2022-12-18T14:00:57;26.63;;;12.80;;
19030;SDS011;9648;51.130;13.978;2022-12-18T14:03:28;21.90;;;12.05;;
19030;SDS011;9648;51.130;13.978;2022-12-18T14:05:56;25.27;;;12.88;;
19030;SDS011;9648;51.130;13.978;2022-12-18T14:08:30;23.47;;;12.13;;
19030;SDS011;9648;51.130;13.978;2022-12-18T14:11:01;23.10;;;12.37;;
19030;SDS011;9648;51.130;13.978;2022-12-18T14:13:31;23.30;;;12.45;;
19030;SDS011;9648;51.130;13.978;2022-12-18T14:16:00;22.65;;;11.60;;
19030;SDS011;9648;51.130;13.978;2022-12-18T14:18:31;23.93;;;12.73;;
19030;SDS011;9648;51.130;13.978;2022-12-18T14:21:04;26.13;;;12.70;;
19030;SDS011;9648;51.130;13.978;2022-12-18T14:23:35;25.67;;;13.10;;
19030;SDS011;9648;51.130;13.978;2022-12-18T14:26:18;25.70;;;12.85;;
19030;SDS011;9648;51.130;13.978;2022-12-18T14:28:47;24.25;;;12.88;;
19030;SDS011;9648;51.130;13.978;2022-12-18T14:31:17;25.48;;;13.32;;
19030;SDS011;9648;51.130;13.978;2022-12-18T14:33:45;25.02;;;12.98;;
19030;SDS011;9648;51.130;13.978;2022-12-18T14:36:14;28.20;;;14.10;;
19030;SDS011;9648;51.130;13.978;2022-12-18T14:38:47;31.23;;;14.48;;
19030;SDS011;9648;51.130;13.978;2022-12-18T14:41:15;25.88;;;14.15;;
19030;SDS011;9648;51.130;13.978;2022-12-18T14:43:44;29.88;;;14.52;;
19030;SDS011;9648;51.130;13.978;2022-12-18T14:46:25;27.67;;;14.00;;
19030;SDS011;9648;51.130;13.978;2022-12-18T14:48:55;27.35;;;13.68;;
19030;SDS011;9648;51.130;13.978;2022-12-18T14:51:23;27.83;;;13.85;;